createdAt,value
2023-10-23T00:00:09.065Z,52.71
2023-10-23T00:01:15.246Z,52.73
2023-10-23T00:02:20.263Z,52.73
2023-10-23T00:03:23.373Z,52.75
2023-10-23T00:04:26.367Z,52.76
2023-10-23T00:05:29.918Z,52.76
2023-10-23T00:06:33.373Z,52.75
2023-10-23T00:07:36.342Z,52.77
2023-10-23T00:08:40.848Z,52.77
2023-10-23T00:09:44.299Z,52.76
2023-10-23T00:10:47.614Z,52.77
2023-10-23T00:11:52.433Z,52.77
2023-10-23T00:12:56.733Z,52.77
2023-10-23T00:13:59.964Z,52.78
2023-10-23T00:15:03.204Z,52.78
2023-10-23T00:16:06.457Z,52.82
2023-10-23T00:17:09.402Z,52.82
2023-10-23T00:18:13.406Z,52.81
2023-10-23T00:19:17.524Z,52.79
2023-10-23T00:20:21.192Z,52.81
2023-10-23T00:21:25.164Z,52.82
2023-10-23T00:22:30.291Z,52.83
2023-10-23T00:23:33.038Z,52.86
2023-10-23T00:24:35.778Z,52.86
2023-10-23T00:25:38.916Z,52.86
2023-10-23T00:26:41.984Z,52.83
2023-10-23T00:27:45.137Z,52.85
2023-10-23T00:28:49.119Z,52.87
2023-10-23T00:29:52.879Z,52.85
2023-10-23T00:30:55.965Z,52.83
2023-10-23T00:31:59.157Z,52.82
2023-10-23T00:33:02.574Z,52.84
2023-10-23T00:34:06.554Z,52.82
2023-10-23T00:35:09.557Z,52.82
2023-10-23T00:36:14.890Z,52.84
2023-10-23T00:37:17.997Z,52.81
2023-10-23T00:38:21.026Z,52.82
2023-10-23T00:39:24.477Z,52.82
2023-10-23T00:40:27.582Z,52.85
2023-10-23T00:41:30.590Z,52.83
2023-10-23T00:42:36.104Z,52.85
2023-10-23T00:43:39.386Z,52.85
2023-10-23T00:44:42.525Z,52.90
2023-10-23T00:47:13.749Z,53.00
2023-10-23T00:48:21.385Z,53.04
2023-10-23T00:49:24.797Z,53.04
2023-10-23T00:50:29.014Z,52.98
2023-10-23T00:51:32.182Z,52.98
2023-10-23T00:52:36.439Z,52.96
2023-10-23T00:53:39.950Z,52.97
2023-10-23T00:54:42.785Z,52.94
2023-10-23T00:55:46.776Z,52.92
2023-10-23T00:56:50.326Z,52.90
2023-10-23T00:57:54.774Z,52.91
2023-10-23T00:58:58.609Z,52.95
2023-10-23T01:00:02.062Z,52.95
2023-10-23T01:01:06.018Z,52.97
2023-10-23T01:02:10.156Z,52.99
2023-10-23T01:03:12.983Z,53.00
2023-10-23T01:04:16.240Z,52.72
2023-10-23T01:05:18.959Z,52.72
2023-10-23T01:06:21.932Z,53.01
2023-10-23T01:07:25.391Z,53.01
2023-10-23T01:08:28.384Z,52.97
2023-10-23T01:09:31.361Z,53.00
2023-10-23T01:10:34.706Z,53.00
2023-10-23T01:11:37.652Z,53.00
2023-10-23T01:12:41.724Z,52.99
2023-10-23T01:13:44.569Z,52.97
2023-10-23T01:14:48.150Z,53.00
2023-10-23T01:15:52.854Z,52.99
2023-10-23T01:16:56.660Z,53.01
2023-10-23T01:18:03.527Z,53.01
2023-10-23T01:19:07.150Z,53.00
2023-10-23T01:20:11.532Z,53.01
2023-10-23T01:21:14.434Z,53.00
2023-10-23T01:22:18.007Z,53.06
2023-10-23T01:23:25.394Z,53.07
2023-10-23T01:24:28.727Z,53.07
2023-10-23T01:25:31.638Z,53.05
2023-10-23T01:26:34.556Z,53.08
2023-10-23T01:27:39.196Z,53.05
2023-10-23T01:28:42.252Z,53.00
2023-10-23T01:29:45.234Z,53.02
2023-10-23T01:30:50.248Z,52.99
2023-10-23T01:31:54.300Z,52.97
2023-10-23T01:32:58.646Z,52.98
2023-10-23T01:34:01.364Z,52.99
2023-10-23T01:35:06.426Z,52.99
2023-10-23T01:36:09.473Z,52.96
2023-10-23T01:37:12.208Z,52.96
2023-10-23T01:38:16.008Z,52.95
2023-10-23T01:39:18.832Z,52.91
2023-10-23T01:40:21.713Z,52.94
2023-10-23T01:41:25.644Z,52.89
2023-10-23T01:42:30.569Z,52.87
2023-10-23T01:43:33.484Z,52.87
2023-10-23T01:45:49.005Z,52.84
2023-10-23T01:46:53.371Z,52.84
2023-10-23T01:47:57.292Z,52.87
2023-10-23T01:49:00.189Z,52.87
2023-10-23T01:50:04.608Z,52.87
2023-10-23T01:51:08.161Z,52.86
2023-10-23T01:52:11.498Z,53.00
2023-10-23T01:53:14.208Z,53.00
2023-10-23T01:54:17.031Z,52.89
2023-10-23T01:55:21.000Z,52.96
2023-10-23T01:56:24.088Z,53.01
2023-10-23T01:57:26.991Z,53.00
2023-10-23T01:58:30.020Z,53.03
2023-10-23T01:59:33.513Z,53.01
2023-10-23T02:00:36.567Z,53.10
2023-10-23T02:01:40.548Z,53.10
2023-10-23T02:02:44.300Z,53.05
2023-10-23T02:03:47.326Z,53.02
2023-10-23T02:04:50.517Z,53.10
2023-10-23T02:05:54.166Z,53.16
2023-10-23T02:06:57.547Z,53.17
2023-10-23T02:08:02.343Z,53.22
2023-10-23T02:09:05.721Z,53.25
2023-10-23T02:10:10.403Z,53.26
2023-10-23T02:11:13.144Z,53.28
2023-10-23T02:12:15.974Z,53.30
2023-10-23T02:13:19.867Z,53.30
2023-10-23T02:14:22.703Z,53.29
2023-10-23T02:15:25.727Z,53.27
2023-10-23T02:16:29.555Z,53.26
2023-10-23T02:17:32.891Z,53.23
2023-10-23T02:18:36.226Z,53.21
2023-10-23T02:19:39.027Z,53.17
2023-10-23T02:20:43.107Z,53.15
2023-10-23T02:21:52.270Z,53.14
2023-10-23T02:22:55.493Z,53.11
2023-10-23T02:23:59.172Z,53.10
2023-10-23T02:25:02.263Z,53.11
2023-10-23T02:26:05.601Z,53.13
2023-10-23T02:27:08.359Z,53.12
2023-10-23T02:28:11.172Z,53.11
2023-10-23T02:29:14.861Z,53.10
2023-10-23T02:30:18.715Z,53.05
2023-10-23T02:31:24.425Z,53.09
2023-10-23T02:32:27.344Z,53.09
2023-10-23T02:33:32.254Z,53.14
2023-10-23T02:34:39.238Z,53.19
2023-10-23T02:35:44.549Z,53.21
2023-10-23T02:36:47.984Z,53.20
2023-10-23T02:37:52.808Z,53.17
2023-10-23T02:38:55.797Z,53.17
2023-10-23T02:39:58.793Z,53.16
2023-10-23T02:41:02.132Z,53.17
2023-10-23T02:42:07.396Z,53.19
2023-10-23T02:43:11.538Z,53.15
2023-10-23T02:44:14.842Z,53.23
2023-10-23T02:45:17.620Z,53.27
2023-10-23T02:46:20.795Z,53.30
2023-10-23T02:47:23.630Z,53.37
2023-10-23T02:48:26.401Z,53.43
2023-10-23T02:49:30.374Z,53.45
2023-10-23T02:50:33.911Z,53.51
2023-10-23T02:51:38.817Z,53.53
2023-10-23T02:52:42.168Z,53.56
2023-10-23T02:53:45.777Z,53.56
2023-10-23T02:54:52.511Z,53.50
2023-10-23T02:55:55.657Z,53.50
2023-10-23T02:56:58.792Z,53.65
2023-10-23T02:58:01.544Z,53.70
2023-10-23T02:59:04.771Z,53.68
2023-10-23T03:00:09.698Z,53.69
2023-10-23T03:02:30.905Z,53.78
2023-10-23T03:03:34.070Z,53.71
2023-10-23T03:04:36.917Z,53.73
2023-10-23T03:05:40.028Z,53.76
2023-10-23T03:06:43.057Z,53.76
2023-10-23T03:07:46.160Z,53.79
2023-10-23T03:08:49.098Z,53.79
2023-10-23T03:09:52.690Z,53.81
2023-10-23T03:10:55.828Z,53.81
2023-10-23T03:11:58.600Z,53.84
2023-10-23T03:13:01.382Z,53.85
2023-10-23T03:14:04.543Z,53.88
2023-10-23T03:15:09.263Z,53.89
2023-10-23T03:16:15.601Z,53.93
2023-10-23T03:17:19.148Z,53.96
2023-10-23T03:18:22.089Z,53.95
2023-10-23T03:19:26.124Z,53.96
2023-10-23T03:20:30.186Z,53.98
2023-10-23T03:21:34.138Z,53.99
2023-10-23T03:22:36.952Z,54.04
2023-10-23T03:23:40.350Z,54.06
2023-10-23T03:24:43.402Z,54.10
2023-10-23T03:25:46.265Z,54.06
2023-10-23T03:26:50.407Z,54.08
2023-10-23T03:27:53.396Z,54.05
2023-10-23T03:28:56.480Z,54.04
2023-10-23T03:29:59.234Z,54.05
2023-10-23T03:31:04.235Z,54.04
2023-10-23T03:32:07.307Z,54.04
2023-10-23T03:33:10.235Z,54.15
2023-10-23T03:34:14.722Z,54.28
2023-10-23T03:35:19.228Z,54.24
2023-10-23T03:36:23.750Z,54.10
2023-10-23T03:37:26.733Z,53.87
2023-10-23T03:38:31.044Z,53.75
2023-10-23T03:39:37.353Z,53.52
2023-10-23T03:40:41.000Z,53.34
2023-10-23T03:41:43.927Z,53.14
2023-10-23T03:42:52.607Z,52.92
2023-10-23T03:43:55.493Z,52.82
2023-10-23T03:44:58.374Z,52.72
2023-10-23T03:46:04.440Z,52.59
2023-10-23T03:47:07.370Z,52.53
2023-10-23T03:48:10.319Z,52.40
2023-10-23T03:49:13.905Z,52.29
2023-10-23T03:50:17.268Z,52.21
2023-10-23T03:51:20.777Z,52.09
2023-10-23T03:52:24.035Z,52.00
2023-10-23T03:53:27.008Z,51.92
2023-10-23T03:54:30.354Z,51.82
2023-10-23T03:55:38.087Z,51.76
2023-10-23T03:56:41.379Z,51.72
2023-10-23T03:57:44.300Z,51.69
2023-10-23T03:58:48.171Z,51.60
2023-10-23T03:59:51.034Z,51.29
2023-10-23T04:00:55.232Z,51.30
2023-10-23T04:01:58.098Z,51.32
2023-10-23T04:03:01.238Z,51.33
2023-10-23T04:04:04.710Z,51.66
2023-10-23T04:05:08.971Z,51.57
2023-10-23T04:07:24.426Z,51.69
2023-10-23T04:08:28.328Z,51.68
2023-10-23T04:09:34.019Z,51.60
2023-10-23T04:10:37.132Z,51.51
2023-10-23T04:11:40.131Z,49.61
2023-10-23T04:12:43.050Z,50.05
2023-10-23T04:13:46.207Z,49.93
2023-10-23T04:14:48.862Z,49.98
2023-10-23T04:15:56.687Z,49.85
2023-10-23T04:16:59.585Z,49.82
2023-10-23T04:18:03.346Z,47.50
2023-10-23T04:19:06.108Z,49.70
2023-10-23T04:20:11.663Z,48.46
2023-10-23T04:21:14.523Z,48.99
2023-10-23T04:22:17.268Z,49.22
2023-10-23T04:23:20.218Z,49.03
2023-10-23T04:24:24.793Z,47.08
2023-10-23T04:25:27.785Z,47.67
2023-10-23T04:26:31.641Z,48.14
2023-10-23T04:27:34.562Z,48.33
2023-10-23T04:28:37.520Z,48.28
2023-10-23T04:29:40.955Z,48.39
2023-10-23T04:30:43.833Z,48.13
2023-10-23T04:31:46.770Z,48.12
2023-10-23T04:32:50.623Z,47.94
2023-10-23T04:33:53.466Z,48.27
2023-10-23T04:34:58.139Z,48.50
2023-10-23T04:36:02.311Z,48.83
2023-10-23T04:37:06.135Z,48.31
2023-10-23T04:38:08.915Z,48.28
2023-10-23T04:39:12.097Z,48.02
2023-10-23T04:40:15.716Z,47.97
2023-10-23T04:42:34.940Z,47.74
2023-10-23T04:43:38.149Z,47.60
2023-10-23T04:44:40.947Z,48.19
2023-10-23T04:45:44.137Z,48.17
2023-10-23T04:46:47.043Z,48.30
2023-10-23T04:47:49.921Z,48.88
2023-10-23T04:50:09.082Z,49.51
2023-10-23T04:51:11.913Z,49.66
2023-10-23T04:52:14.673Z,48.52
2023-10-23T04:53:18.163Z,48.48
2023-10-23T04:54:21.059Z,48.74
2023-10-23T04:55:24.165Z,48.86
2023-10-23T04:56:27.746Z,48.57
2023-10-23T04:57:30.543Z,48.51
2023-10-23T04:58:33.811Z,48.57
2023-10-23T04:59:38.776Z,45.94
2023-10-23T05:00:41.894Z,47.31
2023-10-23T05:02:57.509Z,47.26
2023-10-23T05:05:13.801Z,47.90
2023-10-23T05:06:17.418Z,48.05
2023-10-23T05:07:20.057Z,48.30
2023-10-23T05:08:22.921Z,48.64
2023-10-23T05:09:25.927Z,48.92
2023-10-23T05:11:40.613Z,47.91
2023-10-23T05:12:46.491Z,48.83
2023-10-23T05:13:50.998Z,48.34
2023-10-23T05:14:54.260Z,48.55
2023-10-23T05:17:19.332Z,47.74
2023-10-23T05:18:23.882Z,48.20
2023-10-23T05:19:26.912Z,48.89
2023-10-23T05:20:30.334Z,49.00
2023-10-23T05:21:35.346Z,49.03
2023-10-23T05:22:38.282Z,49.02
2023-10-23T05:23:41.796Z,48.83
2023-10-23T05:24:47.859Z,48.12
2023-10-23T05:25:51.042Z,48.37
2023-10-23T05:26:55.224Z,48.10
2023-10-23T05:27:58.500Z,47.61
2023-10-23T05:29:01.659Z,47.95
2023-10-23T05:31:20.643Z,46.54
2023-10-23T05:32:23.785Z,47.98
2023-10-23T05:33:26.428Z,48.13
2023-10-23T05:34:30.201Z,48.10
2023-10-23T05:35:33.763Z,46.84
2023-10-23T05:36:36.782Z,43.90
2023-10-23T05:37:40.458Z,45.96
2023-10-23T05:38:44.250Z,46.46
2023-10-23T05:39:46.943Z,46.92
2023-10-23T05:40:53.526Z,45.47
2023-10-23T05:41:56.269Z,46.72
2023-10-23T05:42:59.436Z,47.07
2023-10-23T05:44:02.470Z,47.38
2023-10-23T05:45:07.770Z,47.54
2023-10-23T05:46:11.053Z,47.36
2023-10-23T05:47:15.129Z,46.81
2023-10-23T05:48:19.451Z,46.91
2023-10-23T05:49:22.330Z,47.07
2023-10-23T05:50:27.138Z,46.23
2023-10-23T05:51:30.518Z,46.68
2023-10-23T05:52:33.236Z,46.42
2023-10-23T05:53:36.205Z,46.63
2023-10-23T05:54:39.260Z,46.17
2023-10-23T05:55:43.143Z,46.43
2023-10-23T05:56:46.446Z,46.65
2023-10-23T05:57:49.594Z,46.80
2023-10-23T05:58:52.300Z,46.87
2023-10-23T05:59:56.258Z,46.00
2023-10-23T06:01:09.068Z,45.53
2023-10-23T06:02:14.817Z,45.61
2023-10-23T06:03:16.704Z,44.92
2023-10-23T06:04:20.088Z,45.85
2023-10-23T06:05:24.645Z,46.05
2023-10-23T06:06:28.872Z,46.13
2023-10-23T06:07:33.678Z,46.24
2023-10-23T06:08:36.696Z,46.31
2023-10-23T06:09:41.291Z,46.14
2023-10-23T06:10:45.992Z,44.66
2023-10-23T06:11:49.718Z,46.06
2023-10-23T06:12:53.408Z,46.11
2023-10-23T06:13:58.323Z,46.13
2023-10-23T06:15:01.323Z,46.27
2023-10-23T06:16:08.295Z,46.37
2023-10-23T06:17:11.330Z,46.25
2023-10-23T06:18:14.582Z,46.00
2023-10-23T06:19:17.953Z,46.13
2023-10-23T06:20:20.864Z,46.37
2023-10-23T06:21:23.453Z,46.36
2023-10-23T06:22:26.799Z,46.36
2023-10-23T06:23:35.247Z,46.40
2023-10-23T06:24:39.033Z,46.34
2023-10-23T06:25:41.937Z,46.28
2023-10-23T06:26:45.078Z,46.20
2023-10-23T06:27:47.852Z,45.22
2023-10-23T06:28:51.512Z,44.96
2023-10-23T06:29:54.805Z,43.50
2023-10-23T06:30:59.662Z,43.50
2023-10-23T06:32:04.101Z,44.97
2023-10-23T06:33:06.994Z,45.25
2023-10-23T06:34:11.200Z,43.08
2023-10-23T06:35:16.699Z,44.94
2023-10-23T06:36:19.917Z,45.27
2023-10-23T06:37:23.923Z,45.68
2023-10-23T06:38:26.825Z,45.90
2023-10-23T06:39:31.554Z,45.30
2023-10-23T06:40:34.513Z,45.54
2023-10-23T06:41:38.330Z,45.10
2023-10-23T06:42:41.307Z,44.99
2023-10-23T06:43:44.259Z,44.46
2023-10-23T06:44:47.028Z,44.63
2023-10-23T06:46:01.676Z,44.89
2023-10-23T06:46:56.644Z,44.40
2023-10-23T06:47:59.754Z,44.42
2023-10-23T06:49:04.538Z,44.43
2023-10-23T06:50:09.291Z,44.10
2023-10-23T06:51:12.842Z,44.35
2023-10-23T06:52:17.036Z,44.11
2023-10-23T06:53:19.760Z,43.83
2023-10-23T06:54:24.564Z,43.22
2023-10-23T06:55:30.160Z,44.61
2023-10-23T06:56:33.109Z,44.95
2023-10-23T06:57:36.922Z,45.22
2023-10-23T06:58:39.957Z,45.10
2023-10-23T06:59:43.932Z,44.55
2023-10-23T07:00:48.201Z,43.72
2023-10-23T07:01:51.774Z,44.31
2023-10-23T07:02:54.664Z,44.30
2023-10-23T07:03:58.066Z,45.01
2023-10-23T07:05:01.261Z,45.01
2023-10-23T07:06:06.473Z,44.55
2023-10-23T07:07:18.279Z,44.98
2023-10-23T07:08:15.570Z,45.15
2023-10-23T07:09:20.344Z,44.77
2023-10-23T07:10:23.798Z,44.72
2023-10-23T07:11:27.458Z,45.00
2023-10-23T07:12:30.227Z,44.91
2023-10-23T07:13:34.839Z,45.05
2023-10-23T07:14:37.788Z,43.84
2023-10-23T07:15:40.893Z,44.06
2023-10-23T07:16:46.111Z,44.71
2023-10-23T07:17:50.223Z,44.68
2023-10-23T07:18:53.405Z,44.90
2023-10-23T07:19:56.540Z,44.72
2023-10-23T07:21:01.725Z,44.35
2023-10-23T07:22:05.725Z,44.69
2023-10-23T07:23:09.287Z,44.70
2023-10-23T07:24:12.875Z,44.53
2023-10-23T07:25:16.092Z,44.53
2023-10-23T07:26:19.879Z,44.14
2023-10-23T07:27:23.304Z,44.37
2023-10-23T07:28:26.557Z,44.50
2023-10-23T07:29:30.344Z,43.97
2023-10-23T07:30:33.884Z,44.31
2023-10-23T07:31:37.693Z,44.61
2023-10-23T07:32:40.683Z,44.61
2023-10-23T07:33:43.891Z,44.59
2023-10-23T07:34:46.657Z,44.64
2023-10-23T07:35:53.412Z,44.28
2023-10-23T07:36:54.132Z,44.52
2023-10-23T07:37:57.397Z,44.39
2023-10-23T07:39:00.550Z,44.50
2023-10-23T07:40:07.180Z,44.40
2023-10-23T07:41:11.367Z,44.51
2023-10-23T07:42:16.145Z,44.64
2023-10-23T07:43:18.832Z,44.30
2023-10-23T07:44:21.648Z,44.05
2023-10-23T07:45:24.744Z,44.23
2023-10-23T07:46:28.776Z,42.63
2023-10-23T07:47:31.500Z,43.90
2023-10-23T07:48:34.457Z,44.02
2023-10-23T07:49:37.927Z,43.45
2023-10-23T07:50:41.292Z,43.87
2023-10-23T07:51:45.463Z,43.87
2023-10-23T07:52:50.424Z,43.96
2023-10-23T07:53:53.198Z,44.20
2023-10-23T07:54:55.840Z,43.88
2023-10-23T07:55:59.355Z,43.26
2023-10-23T07:57:03.394Z,43.73
2023-10-23T07:58:08.103Z,43.95
2023-10-23T07:59:11.017Z,43.66
2023-10-23T08:00:15.717Z,44.11
2023-10-23T08:01:20.376Z,41.76
2023-10-23T08:02:23.242Z,42.41
2023-10-23T08:03:26.717Z,43.55
2023-10-23T08:04:30.448Z,43.80
2023-10-23T08:05:33.977Z,43.99
2023-10-23T08:06:36.791Z,42.35
2023-10-23T08:07:39.645Z,43.07
2023-10-23T08:08:44.941Z,43.44
2023-10-23T08:09:47.846Z,43.59
2023-10-23T08:10:51.125Z,43.35
2023-10-23T08:11:54.386Z,43.48
2023-10-23T08:12:57.216Z,43.70
2023-10-23T08:14:00.752Z,43.79
2023-10-23T08:15:04.097Z,43.87
2023-10-23T08:16:07.446Z,43.87
2023-10-23T08:17:10.285Z,43.90
2023-10-23T08:18:22.381Z,43.54
2023-10-23T08:19:19.716Z,43.69
2023-10-23T08:21:28.805Z,43.67
2023-10-23T08:22:32.830Z,43.83
2023-10-23T08:23:35.715Z,42.52
2023-10-23T08:24:38.490Z,40.97
2023-10-23T08:26:58.831Z,42.77
2023-10-23T08:28:04.559Z,42.55
2023-10-23T08:29:10.119Z,42.70
2023-10-23T08:30:14.019Z,42.62
2023-10-23T08:31:34.168Z,42.72
2023-10-23T08:32:28.748Z,41.46
2023-10-23T08:33:28.504Z,42.88
2023-10-23T08:34:33.512Z,43.06
2023-10-23T08:35:36.718Z,43.11
2023-10-23T08:36:40.435Z,42.38
2023-10-23T08:37:43.700Z,42.90
2023-10-23T08:38:47.232Z,43.07
2023-10-23T08:39:51.663Z,43.30
2023-10-23T08:40:56.066Z,42.86
2023-10-23T08:42:00.990Z,43.09
2023-10-23T08:43:04.103Z,42.98
2023-10-23T08:45:40.265Z,43.46
2023-10-23T08:46:45.318Z,43.51
2023-10-23T08:47:48.032Z,43.18
2023-10-23T08:48:51.339Z,43.22
2023-10-23T08:49:57.052Z,42.30
2023-10-23T08:51:00.908Z,40.45
2023-10-23T08:52:03.978Z,41.57
2023-10-23T08:53:10.814Z,42.11
2023-10-23T08:54:16.756Z,41.93
2023-10-23T08:55:19.581Z,41.77
2023-10-23T08:56:22.778Z,42.29
2023-10-23T08:57:25.691Z,42.35
2023-10-23T08:58:28.271Z,42.52
2023-10-23T08:59:31.471Z,41.93
2023-10-23T09:00:35.884Z,41.93
2023-10-23T09:01:39.941Z,42.45
2023-10-23T09:02:51.569Z,42.48
2023-10-23T09:04:02.329Z,42.93
2023-10-23T09:04:52.295Z,42.76
2023-10-23T09:05:57.297Z,43.02
2023-10-23T09:07:01.724Z,43.16
2023-10-23T09:08:07.055Z,42.71
2023-10-23T09:09:10.783Z,43.07
2023-10-23T09:10:15.376Z,43.21
2023-10-23T09:11:19.234Z,42.51
2023-10-23T09:13:47.368Z,42.92
2023-10-23T09:14:51.412Z,42.85
2023-10-23T09:15:54.675Z,42.26
2023-10-23T09:16:58.220Z,42.25
2023-10-23T09:18:04.089Z,42.25
2023-10-23T09:19:06.846Z,41.76
2023-10-23T09:21:34.040Z,42.43
2023-10-23T09:22:37.468Z,41.21
2023-10-23T09:23:55.207Z,42.42
2023-10-23T09:24:58.212Z,42.50
2023-10-23T09:26:02.276Z,42.69
2023-10-23T09:27:06.324Z,42.83
2023-10-23T09:28:13.034Z,42.66
2023-10-23T09:29:15.740Z,42.56
2023-10-23T09:30:22.223Z,41.86
2023-10-23T09:31:26.407Z,41.90
2023-10-23T09:32:31.916Z,42.10
2023-10-23T09:33:34.592Z,42.17
2023-10-23T09:34:39.938Z,41.79
2023-10-23T09:35:43.105Z,42.11
2023-10-23T09:36:47.684Z,42.06
2023-10-23T09:37:50.967Z,41.89
2023-10-23T09:40:10.456Z,42.05
2023-10-23T09:41:16.027Z,42.15
2023-10-23T09:42:19.007Z,42.00
2023-10-23T09:43:24.663Z,40.97
2023-10-23T09:44:27.774Z,41.86
2023-10-23T09:45:30.906Z,42.11
2023-10-23T09:46:34.147Z,42.16
2023-10-23T09:47:37.777Z,42.32
2023-10-23T09:48:44.130Z,42.42
2023-10-23T09:49:47.832Z,42.48
2023-10-23T09:50:51.276Z,42.42
2023-10-23T09:51:54.068Z,42.29
2023-10-23T09:52:57.906Z,42.38
2023-10-23T09:54:00.794Z,42.14
2023-10-23T09:55:05.598Z,40.42
2023-10-23T09:56:09.198Z,41.38
2023-10-23T09:58:34.264Z,41.34
2023-10-23T09:59:44.350Z,41.14
2023-10-23T10:00:48.462Z,41.77
2023-10-23T10:01:51.699Z,41.85
2023-10-23T10:02:55.748Z,42.01
2023-10-23T10:04:00.771Z,42.09
2023-10-23T10:05:07.042Z,42.11
2023-10-23T10:06:16.119Z,41.80
2023-10-23T10:07:25.297Z,41.92
2023-10-23T10:08:28.140Z,41.93
2023-10-23T10:09:31.264Z,42.08
2023-10-23T10:10:36.247Z,42.07
2023-10-23T10:12:56.733Z,41.56
2023-10-23T10:13:59.555Z,41.29
2023-10-23T10:15:04.639Z,41.71
2023-10-23T10:16:09.566Z,41.73
2023-10-23T10:18:24.346Z,41.30
2023-10-23T10:19:28.963Z,41.18
2023-10-23T10:20:33.869Z,41.84
2023-10-23T10:21:53.527Z,41.84
2023-10-23T10:23:12.295Z,41.79
2023-10-23T10:24:18.794Z,41.80
2023-10-23T10:25:21.672Z,41.82
2023-10-23T10:26:25.391Z,40.51
2023-10-23T10:27:30.093Z,40.82
2023-10-23T10:28:33.254Z,41.48
2023-10-23T10:29:36.139Z,41.56
2023-10-23T10:30:45.820Z,40.94
2023-10-23T10:32:10.967Z,41.55
2023-10-23T10:34:31.462Z,41.64
2023-10-23T10:35:41.540Z,40.69
2023-10-23T10:36:45.345Z,41.34
2023-10-23T10:37:41.239Z,40.90
2023-10-23T10:38:44.153Z,40.69
2023-10-23T10:39:53.645Z,41.12
2023-10-23T10:41:05.902Z,41.02
2023-10-23T10:42:11.937Z,40.47
2023-10-23T10:43:20.005Z,40.73
2023-10-23T10:44:23.219Z,41.11
2023-10-23T10:45:28.646Z,41.28
2023-10-23T10:46:32.157Z,41.29
2023-10-23T10:47:40.103Z,41.18
2023-10-23T10:48:44.480Z,40.60
2023-10-23T10:49:48.870Z,40.77
2023-10-23T10:50:55.204Z,40.95
2023-10-23T10:53:20.848Z,40.12
2023-10-23T10:54:24.697Z,40.61
2023-10-23T10:55:27.654Z,40.81
2023-10-23T10:56:32.039Z,40.82
2023-10-23T10:57:34.923Z,40.86
2023-10-23T10:58:39.259Z,39.92
2023-10-23T10:59:42.001Z,40.18
2023-10-23T11:00:46.315Z,39.72
2023-10-23T11:01:49.891Z,40.47
2023-10-23T11:02:56.243Z,40.71
2023-10-23T11:03:57.947Z,40.23
2023-10-23T11:05:06.166Z,40.57
2023-10-23T11:06:10.813Z,40.10
2023-10-23T11:07:15.124Z,40.44
2023-10-23T11:08:18.463Z,40.36
2023-10-23T11:09:24.212Z,40.49
2023-10-23T11:10:28.185Z,40.63
2023-10-23T11:11:32.454Z,40.70
2023-10-23T11:12:35.716Z,40.57
2023-10-23T11:13:40.952Z,40.13
2023-10-23T11:14:44.795Z,40.21
2023-10-23T11:15:47.859Z,39.99
2023-10-23T11:16:51.852Z,40.85
2023-10-23T11:17:55.785Z,41.39
2023-10-23T11:18:59.865Z,41.49
2023-10-23T11:21:25.740Z,40.34
2023-10-23T11:22:28.407Z,40.80
2023-10-23T11:23:31.552Z,41.07
2023-10-23T11:24:34.495Z,40.03
2023-10-23T11:25:37.470Z,40.19
2023-10-23T11:26:41.015Z,39.88
2023-10-23T11:27:47.043Z,39.64
2023-10-23T11:28:50.238Z,40.28
2023-10-23T11:29:53.248Z,39.72
2023-10-23T11:30:58.796Z,39.47
2023-10-23T11:32:01.530Z,40.11
2023-10-23T11:33:07.910Z,40.35
2023-10-23T11:34:11.637Z,39.98
2023-10-23T11:35:14.675Z,39.68
2023-10-23T11:36:19.096Z,40.00
2023-10-23T11:37:22.584Z,40.27
2023-10-23T11:39:48.036Z,39.73
2023-10-23T11:40:52.371Z,39.77
2023-10-23T11:43:14.864Z,40.39
2023-10-23T11:44:19.036Z,40.05
2023-10-23T11:45:22.955Z,40.48
2023-10-23T11:46:26.380Z,40.68
2023-10-23T11:47:31.295Z,40.63
2023-10-23T11:49:50.892Z,40.65
2023-10-23T11:50:53.836Z,40.23
2023-10-23T11:51:57.165Z,40.20
2023-10-23T11:53:00.463Z,40.29
2023-10-23T11:54:04.888Z,39.65
2023-10-23T11:55:11.103Z,39.85
2023-10-23T11:56:13.883Z,39.85
2023-10-23T11:57:17.694Z,40.49
2023-10-23T11:58:33.573Z,40.57
2023-10-23T11:59:45.429Z,39.66
2023-10-23T12:00:50.238Z,39.86
2023-10-23T12:01:57.637Z,39.06
2023-10-23T12:03:00.610Z,38.56
2023-10-23T12:04:07.053Z,39.34
2023-10-23T12:06:26.044Z,39.69
2023-10-23T12:07:28.682Z,39.78
2023-10-23T12:08:32.325Z,39.27
2023-10-23T12:09:35.125Z,38.77
2023-10-23T12:10:38.886Z,39.76
2023-10-23T12:11:42.121Z,39.94
2023-10-23T12:12:45.411Z,40.02
2023-10-23T12:13:48.109Z,39.46
2023-10-23T12:14:52.655Z,39.99
2023-10-23T12:15:55.694Z,39.96
2023-10-23T12:17:00.267Z,40.18
2023-10-23T12:19:20.267Z,40.30
2023-10-23T12:20:24.310Z,40.32
2023-10-23T12:21:27.275Z,39.92
2023-10-23T12:22:30.172Z,39.28
2023-10-23T12:23:32.998Z,40.05
2023-10-23T12:24:36.286Z,39.71
2023-10-23T12:25:38.827Z,39.95
2023-10-23T12:26:41.716Z,40.93
2023-10-23T12:27:45.498Z,40.71
2023-10-23T12:28:48.691Z,41.45
2023-10-23T12:29:53.243Z,41.94
2023-10-23T12:30:57.095Z,41.26
2023-10-23T12:32:02.555Z,41.02
2023-10-23T12:33:19.882Z,41.62
2023-10-23T12:34:12.129Z,40.79
2023-10-23T12:35:17.296Z,42.21
2023-10-23T12:36:21.150Z,42.56
2023-10-23T12:37:27.355Z,42.21
2023-10-23T12:39:44.724Z,41.95
2023-10-23T12:40:49.725Z,42.12
2023-10-23T12:41:54.585Z,41.91
2023-10-23T12:42:57.617Z,42.18
2023-10-23T12:44:00.992Z,42.47
2023-10-23T12:45:04.536Z,42.76
2023-10-23T12:46:08.539Z,41.46
2023-10-23T12:47:12.118Z,39.62
2023-10-23T12:48:15.116Z,42.29
2023-10-23T12:49:18.288Z,42.45
2023-10-23T12:50:21.313Z,42.42
2023-10-23T12:51:27.588Z,42.36
2023-10-23T12:52:30.518Z,42.06
2023-10-23T12:53:34.644Z,41.84
2023-10-23T12:54:37.724Z,42.32
2023-10-23T12:55:43.218Z,42.62
2023-10-23T12:56:46.154Z,42.29
2023-10-23T12:57:49.047Z,41.84
2023-10-23T12:58:51.764Z,40.72
2023-10-23T12:59:55.883Z,41.69
2023-10-23T13:00:59.869Z,41.45
2023-10-23T13:02:04.059Z,40.67
2023-10-23T13:03:06.796Z,41.84
2023-10-23T13:04:11.779Z,42.91
2023-10-23T13:05:14.994Z,43.26
2023-10-23T13:06:20.525Z,43.43
2023-10-23T13:07:23.386Z,42.73
2023-10-23T13:08:26.010Z,42.04
2023-10-23T13:09:31.720Z,43.30
2023-10-23T13:10:35.541Z,41.69
2023-10-23T13:11:38.760Z,40.94
2023-10-23T13:12:41.527Z,42.61
2023-10-23T13:13:44.548Z,41.29
2023-10-23T13:14:47.318Z,41.96
2023-10-23T13:15:50.367Z,42.63
2023-10-23T13:16:54.003Z,41.92
2023-10-23T13:17:58.655Z,42.78
2023-10-23T13:19:02.081Z,42.79
2023-10-23T13:20:51.319Z,42.51
2023-10-23T13:21:30.998Z,42.38
2023-10-23T13:22:19.427Z,43.12
2023-10-23T13:23:22.752Z,43.06
2023-10-23T13:24:27.697Z,43.13
2023-10-23T13:25:31.784Z,43.09
2023-10-23T13:26:37.765Z,42.18
2023-10-23T13:27:42.745Z,40.47
2023-10-23T13:28:49.202Z,40.00
2023-10-23T13:29:50.599Z,41.10
2023-10-23T13:30:55.591Z,40.50
2023-10-23T13:31:59.305Z,41.94
2023-10-23T13:33:02.460Z,42.22
2023-10-23T13:34:07.147Z,40.10
2023-10-23T13:35:10.354Z,41.09
2023-10-23T13:36:13.868Z,40.88
2023-10-23T13:37:16.824Z,41.93
2023-10-23T13:38:19.903Z,41.11
2023-10-23T13:39:22.777Z,41.66
2023-10-23T13:40:25.769Z,41.42
2023-10-23T13:41:28.722Z,39.85
2023-10-23T13:42:32.525Z,41.13
2023-10-23T13:43:36.680Z,40.70
2023-10-23T13:44:39.951Z,39.93
2023-10-23T13:45:46.172Z,41.11
2023-10-23T13:46:49.241Z,41.45
2023-10-23T13:47:53.451Z,41.61
2023-10-23T13:48:57.404Z,41.48
2023-10-23T13:50:00.122Z,41.19
2023-10-23T13:51:03.209Z,41.79
2023-10-23T13:52:07.593Z,41.51
2023-10-23T13:53:10.557Z,41.76
2023-10-23T13:54:13.447Z,41.60
2023-10-23T13:55:17.849Z,41.50
2023-10-23T13:56:20.946Z,41.94
2023-10-23T13:57:25.984Z,41.19
2023-10-23T13:58:29.134Z,41.46
2023-10-23T13:59:32.536Z,41.05
2023-10-23T14:00:35.605Z,41.01
2023-10-23T14:01:38.503Z,41.99
2023-10-23T14:02:42.102Z,41.14
2023-10-23T14:03:45.809Z,42.14
2023-10-23T14:04:51.493Z,41.23
2023-10-23T14:05:54.719Z,41.89
2023-10-23T14:07:01.004Z,41.87
2023-10-23T14:08:04.732Z,41.68
2023-10-23T14:09:40.549Z,42.11
2023-10-23T14:10:21.352Z,41.09
2023-10-23T14:11:56.889Z,41.71
2023-10-23T14:12:25.517Z,42.00
2023-10-23T14:13:29.300Z,41.29
2023-10-23T14:14:32.149Z,40.88
2023-10-23T14:15:34.728Z,41.72
2023-10-23T14:16:38.041Z,41.91
2023-10-23T14:17:41.566Z,42.05
2023-10-23T14:18:44.306Z,41.92
2023-10-23T14:19:49.232Z,41.61
2023-10-23T14:20:52.342Z,41.44